sensor_id;sensor_type;location;lat;lon;timestamp;pressure;altitude;pressure_sealevel;temperature;humidity
34658;BME280;20865;43.312;27.152;2023-10-19T00:00:54;100663.39;;;14.58;39.06
34658;BME280;20865;43.312;27.152;2023-10-19T00:03:24;100668.33;;;14.57;39.03
34658;BME280;20865;43.312;27.152;2023-10-19T00:05:55;100662.68;;;14.53;38.79
34658;BME280;20865;43.312;27.152;2023-10-19T00:08:24;100661.61;;;14.57;38.70
34658;BME280;20865;43.312;27.152;2023-10-19T00:10:53;100666.24;;;14.53;38.78
34658;BME280;20865;43.312;27.152;2023-10-19T00:13:23;100663.16;;;14.52;38.54
34658;BME280;20865;43.312;27.152;2023-10-19T00:15:51;100660.20;;;14.47;38.47
34658;BME280;20865;43.312;27.152;2023-10-19T00:18:20;100660.47;;;14.41;38.49
34658;BME280;20865;43.312;27.152;2023-10-19T00:20:50;100667.52;;;14.43;38.47
34658;BME280;20865;43.312;27.152;2023-10-19T00:23:23;100660.98;;;14.39;38.50
34658;BME280;20865;43.312;27.152;2023-10-19T00:25:53;100652.65;;;14.35;38.80
34658;BME280;20865;43.312;27.152;2023-10-19T00:28:21;100650.75;;;14.26;39.01
34658;BME280;20865;43.312;27.152;2023-10-19T00:30:55;100644.30;;;14.30;38.82
34658;BME280;20865;43.312;27.152;2023-10-19T00:33:24;100647.00;;;14.30;38.78
34658;BME280;20865;43.312;27.152;2023-10-19T00:35:53;100646.13;;;14.30;39.15
34658;BME280;20865;43.312;27.152;2023-10-19T00:38:26;100641.73;;;14.27;39.34
34658;BME280;20865;43.312;27.152;2023-10-19T00:40:54;100638.58;;;14.28;39.22
34658;BME280;20865;43.312;27.152;2023-10-19T00:43:33;100642.05;;;14.20;39.34
34658;BME280;20865;43.312;27.152;2023-10-19T00:46:03;100635.38;;;14.18;39.21
34658;BME280;20865;43.312;27.152;2023-10-19T00:48:36;100639.08;;;14.16;39.27
34658;BME280;20865;43.312;27.152;2023-10-19T00:51:05;100632.05;;;14.12;39.34
34658;BME280;20865;43.312;27.152;2023-10-19T00:53:38;100629.91;;;14.10;39.12
34658;BME280;20865;43.312;27.152;2023-10-19T00:56:08;100623.20;;;14.10;39.04
34658;BME280;20865;43.312;27.152;2023-10-19T00:58:38;100626.40;;;14.08;38.76
34658;BME280;20865;43.312;27.152;2023-10-19T01:01:07;100626.98;;;14.04;38.74
34658;BME280;20865;43.312;27.152;2023-10-19T01:03:35;100633.30;;;14.03;38.90
34658;BME280;20865;43.312;27.152;2023-10-19T01:06:04;100628.41;;;14.02;38.90
34658;BME280;20865;43.312;27.152;2023-10-19T01:08:41;100629.03;;;13.97;38.79
34658;BME280;20865;43.312;27.152;2023-10-19T01:11:11;100632.09;;;13.88;38.38
34658;BME280;20865;43.312;27.152;2023-10-19T01:13:41;100633.48;;;13.87;38.62
34658;BME280;20865;43.312;27.152;2023-10-19T01:16:14;100625.65;;;13.80;38.76
34658;BME280;20865;43.312;27.152;2023-10-19T01:18:50;100619.99;;;13.76;38.99
34658;BME280;20865;43.312;27.152;2023-10-19T01:21:24;100618.77;;;13.73;38.95
34658;BME280;20865;43.312;27.152;2023-10-19T01:23:54;100615.69;;;13.61;39.06
34658;BME280;20865;43.312;27.152;2023-10-19T01:26:21;100616.74;;;13.56;39.24
34658;BME280;20865;43.312;27.152;2023-10-19T01:28:50;100617.66;;;13.55;39.33
34658;BME280;20865;43.312;27.152;2023-10-19T01:31:23;100613.70;;;13.54;39.48
34658;BME280;20865;43.312;27.152;2023-10-19T01:33:59;100611.89;;;13.43;39.70
34658;BME280;20865;43.312;27.152;2023-10-19T01:36:28;100615.73;;;13.47;39.36
34658;BME280;20865;43.312;27.152;2023-10-19T01:38:58;100615.77;;;13.46;39.30
34658;BME280;20865;43.312;27.152;2023-10-19T01:41:28;100603.70;;;13.46;39.27
34658;BME280;20865;43.312;27.152;2023-10-19T01:43:57;100602.83;;;13.45;39.15
34658;BME280;20865;43.312;27.152;2023-10-19T01:46:26;100599.67;;;13.46;39.07
34658;BME280;20865;43.312;27.152;2023-10-19T01:49:01;100603.84;;;13.43;39.07
34658;BME280;20865;43.312;27.152;2023-10-19T01:51:34;100609.06;;;13.46;39.08
34658;BME280;20865;43.312;27.152;2023-10-19T01:54:09;100606.55;;;13.41;39.14
34658;BME280;20865;43.312;27.152;2023-10-19T01:56:37;100605.69;;;13.41;39.15
34658;BME280;20865;43.312;27.152;2023-10-19T01:59:07;100612.10;;;13.37;39.06
34658;BME280;20865;43.312;27.152;2023-10-19T02:01:38;100607.14;;;13.38;39.18
34658;BME280;20865;43.312;27.152;2023-10-19T02:04:07;100611.74;;;13.34;39.07
34658;BME280;20865;43.312;27.152;2023-10-19T02:06:36;100606.02;;;13.31;38.80
34658;BME280;20865;43.312;27.152;2023-10-19T02:09:06;100600.35;;;13.27;38.74
34658;BME280;20865;43.312;27.152;2023-10-19T02:11:38;100603.58;;;13.25;38.74
34658;BME280;20865;43.312;27.152;2023-10-19T02:14:07;100594.73;;;13.22;38.66
34658;BME280;20865;43.312;27.152;2023-10-19T02:16:37;100597.56;;;13.17;38.65
34658;BME280;20865;43.312;27.152;2023-10-19T02:19:04;100594.47;;;13.16;38.78
34658;BME280;20865;43.312;27.152;2023-10-19T02:21:32;100598.80;;;13.20;38.79
34658;BME280;20865;43.312;27.152;2023-10-19T02:24:01;100602.89;;;13.19;38.68
34658;BME280;20865;43.312;27.152;2023-10-19T02:26:30;100593.50;;;13.19;38.46
34658;BME280;20865;43.312;27.152;2023-10-19T02:28:58;100591.39;;;13.15;38.47
34658;BME280;20865;43.312;27.152;2023-10-19T02:31:26;100602.05;;;13.17;38.25
34658;BME280;20865;43.312;27.152;2023-10-19T02:33:54;100605.13;;;13.18;38.32
34658;BME280;20865;43.312;27.152;2023-10-19T02:36:29;100608.36;;;13.16;38.58
34658;BME280;20865;43.312;27.152;2023-10-19T02:39:11;100603.57;;;13.12;38.80
34658;BME280;20865;43.312;27.152;2023-10-19T02:41:42;100601.50;;;13.07;38.75
34658;BME280;20865;43.312;27.152;2023-10-19T02:44:14;100597.91;;;13.08;38.93
34658;BME280;20865;43.312;27.152;2023-10-19T02:46:47;100593.89;;;13.08;38.63
34658;BME280;20865;43.312;27.152;2023-10-19T02:49:17;100592.35;;;13.01;38.59
34658;BME280;20865;43.312;27.152;2023-10-19T02:51:48;100595.44;;;13.02;38.68
34658;BME280;20865;43.312;27.152;2023-10-19T02:54:21;100600.50;;;12.98;38.90
34658;BME280;20865;43.312;27.152;2023-10-19T02:56:54;100600.03;;;12.98;39.06
34658;BME280;20865;43.312;27.152;2023-10-19T02:59:24;100600.50;;;12.98;39.28
34658;BME280;20865;43.312;27.152;2023-10-19T03:01:55;100606.84;;;12.95;39.43
34658;BME280;20865;43.312;27.152;2023-10-19T03:04:31;100599.27;;;12.95;39.65
34658;BME280;20865;43.312;27.152;2023-10-19T03:07:00;100598.86;;;12.94;38.90
34658;BME280;20865;43.312;27.152;2023-10-19T03:09:29;100596.39;;;12.87;38.73
34658;BME280;20865;43.312;27.152;2023-10-19T03:11:58;100598.30;;;12.84;39.08
34658;BME280;20865;43.312;27.152;2023-10-19T03:14:34;100601.86;;;12.84;39.58
34658;BME280;20865;43.312;27.152;2023-10-19T03:17:01;100599.27;;;12.81;39.75
34658;BME280;20865;43.312;27.152;2023-10-19T03:19:30;100606.34;;;12.84;39.80
34658;BME280;20865;43.312;27.152;2023-10-19T03:21:58;100604.57;;;12.83;39.50
34658;BME280;20865;43.312;27.152;2023-10-19T03:24:30;100600.05;;;12.85;39.46
34658;BME280;20865;43.312;27.152;2023-10-19T03:27:09;100596.42;;;12.86;39.30
34658;BME280;20865;43.312;27.152;2023-10-19T03:29:49;100592.87;;;12.85;39.46
34658;BME280;20865;43.312;27.152;2023-10-19T03:32:25;100594.17;;;12.87;39.45
34658;BME280;20865;43.312;27.152;2023-10-19T03:34:58;100587.04;;;12.86;39.50
34658;BME280;20865;43.312;27.152;2023-10-19T03:37:23;100586.23;;;12.84;39.43
34658;BME280;20865;43.312;27.152;2023-10-19T03:39:52;100586.64;;;12.85;39.59
34658;BME280;20865;43.312;27.152;2023-10-19T03:42:21;100584.42;;;12.84;39.44
34658;BME280;20865;43.312;27.152;2023-10-19T03:44:50;100580.88;;;12.84;39.27
34658;BME280;20865;43.312;27.152;2023-10-19T03:47:21;100575.15;;;12.81;38.18
34658;BME280;20865;43.312;27.152;2023-10-19T03:49:54;100584.33;;;12.74;38.45
34658;BME280;20865;43.312;27.152;2023-10-19T03:52:22;100584.60;;;12.67;38.76
34658;BME280;20865;43.312;27.152;2023-10-19T03:54:53;100578.10;;;12.60;39.07
34658;BME280;20865;43.312;27.152;2023-10-19T03:57:21;100570.56;;;12.58;39.20
34658;BME280;20865;43.312;27.152;2023-10-19T03:59:53;100571.50;;;12.57;39.00
34658;BME280;20865;43.312;27.152;2023-10-19T04:02:22;100575.72;;;12.51;38.82
34658;BME280;20865;43.312;27.152;2023-10-19T04:04:50;100575.79;;;12.50;38.70
34658;BME280;20865;43.312;27.152;2023-10-19T04:07:19;100566.61;;;12.44;38.94
34658;BME280;20865;43.312;27.152;2023-10-19T04:09:55;100566.20;;;12.43;38.97
34658;BME280;20865;43.312;27.152;2023-10-19T04:12:39;100560.55;;;12.38;39.18
34658;BME280;20865;43.312;27.152;2023-10-19T04:15:12;100558.43;;;12.35;39.12
34658;BME280;20865;43.312;27.152;2023-10-19T04:17:41;100563.82;;;12.33;38.94
34658;BME280;20865;43.312;27.152;2023-10-19T04:20:10;100550.02;;;12.32;39.19
34658;BME280;20865;43.312;27.152;2023-10-19T04:22:46;100559.46;;;12.31;39.40
34658;BME280;20865;43.312;27.152;2023-10-19T04:25:15;100563.70;;;12.23;39.50
34658;BME280;20865;43.312;27.152;2023-10-19T04:27:43;100565.58;;;12.21;39.43
34658;BME280;20865;43.312;27.152;2023-10-19T04:30:12;100560.22;;;12.21;39.55
34658;BME280;20865;43.312;27.152;2023-10-19T04:32:43;100565.41;;;12.26;39.60
34658;BME280;20865;43.312;27.152;2023-10-19T04:35:12;100558.31;;;12.25;39.75
34658;BME280;20865;43.312;27.152;2023-10-19T04:37:42;100559.19;;;12.25;39.84
34658;BME280;20865;43.312;27.152;2023-10-19T04:40:11;100558.69;;;12.27;39.70
34658;BME280;20865;43.312;27.152;2023-10-19T04:42:39;100557.45;;;12.24;39.21
34658;BME280;20865;43.312;27.152;2023-10-19T04:45:07;100557.95;;;12.22;38.63
34658;BME280;20865;43.312;27.152;2023-10-19T04:47:37;100566.82;;;12.24;38.73
34658;BME280;20865;43.312;27.152;2023-10-19T04:50:06;100559.34;;;12.21;38.93
34658;BME280;20865;43.312;27.152;2023-10-19T04:52:34;100565.58;;;12.21;39.20
34658;BME280;20865;43.312;27.152;2023-10-19T04:55:03;100563.70;;;12.23;39.30
34658;BME280;20865;43.312;27.152;2023-10-19T04:57:31;100562.44;;;12.22;38.96
34658;BME280;20865;43.312;27.152;2023-10-19T04:59:59;100578.50;;;12.22;39.41
34658;BME280;20865;43.312;27.152;2023-10-19T05:02:26;100577.20;;;12.20;39.33
34658;BME280;20865;43.312;27.152;2023-10-19T05:04:54;100572.77;;;12.19;39.12
34658;BME280;20865;43.312;27.152;2023-10-19T05:07:22;100580.62;;;12.25;39.10
34658;BME280;20865;43.312;27.152;2023-10-19T05:09:50;100584.49;;;12.43;38.58
34658;BME280;20865;43.312;27.152;2023-10-19T05:12:20;100576.49;;;12.55;38.47
34658;BME280;20865;43.312;27.152;2023-10-19T05:14:48;100581.28;;;12.58;38.46
34658;BME280;20865;43.312;27.152;2023-10-19T05:17:15;100587.31;;;12.65;38.66
34658;BME280;20865;43.312;27.152;2023-10-19T05:19:45;100581.48;;;12.79;38.54
34658;BME280;20865;43.312;27.152;2023-10-19T05:22:12;100578.42;;;12.90;38.51
34658;BME280;20865;43.312;27.152;2023-10-19T05:24:40;100579.26;;;12.92;38.94
34658;BME280;20865;43.312;27.152;2023-10-19T05:27:08;100581.73;;;12.98;39.22
34658;BME280;20865;43.312;27.152;2023-10-19T05:29:36;100576.95;;;13.06;39.29
34658;BME280;20865;43.312;27.152;2023-10-19T05:32:04;100575.19;;;13.18;39.46
34658;BME280;20865;43.312;27.152;2023-10-19T05:34:32;100573.78;;;13.33;39.48
34658;BME280;20865;43.312;27.152;2023-10-19T05:37:01;100578.52;;;13.50;39.38
34658;BME280;20865;43.312;27.152;2023-10-19T05:39:29;100577.52;;;13.64;39.36
34658;BME280;20865;43.312;27.152;2023-10-19T05:41:57;100581.19;;;13.85;39.14
34658;BME280;20865;43.312;27.152;2023-10-19T05:44:33;100582.73;;;14.02;39.01
34658;BME280;20865;43.312;27.152;2023-10-19T05:46:57;100574.68;;;14.24;38.98
34658;BME280;20865;43.312;27.152;2023-10-19T05:49:24;100576.48;;;14.46;39.01
34658;BME280;20865;43.312;27.152;2023-10-19T05:51:53;100572.59;;;14.65;38.89
34658;BME280;20865;43.312;27.152;2023-10-19T05:54:20;100575.23;;;14.87;38.59
34658;BME280;20865;43.312;27.152;2023-10-19T05:56:50;100571.85;;;15.02;38.30
34658;BME280;20865;43.312;27.152;2023-10-19T05:59:18;100570.89;;;15.23;38.71
34658;BME280;20865;43.312;27.152;2023-10-19T06:01:46;100580.48;;;15.49;38.38
34658;BME280;20865;43.312;27.152;2023-10-19T06:04:14;100581.06;;;15.77;38.39
34658;BME280;20865;43.312;27.152;2023-10-19T06:06:42;100574.36;;;16.04;38.02
34658;BME280;20865;43.312;27.152;2023-10-19T06:09:09;100576.88;;;16.35;37.95
34658;BME280;20865;43.312;27.152;2023-10-19T06:11:37;100574.57;;;16.63;37.59
34658;BME280;20865;43.312;27.152;2023-10-19T06:14:07;100576.20;;;16.85;37.63
34658;BME280;20865;43.312;27.152;2023-10-19T06:16:36;100576.74;;;17.09;37.16
34658;BME280;20865;43.312;27.152;2023-10-19T06:19:04;100586.23;;;17.33;37.15
34658;BME280;20865;43.312;27.152;2023-10-19T06:21:31;100583.56;;;17.58;36.87
34658;BME280;20865;43.312;27.152;2023-10-19T06:24:00;100579.54;;;17.82;37.01
34658;BME280;20865;43.312;27.152;2023-10-19T06:26:29;100582.98;;;18.09;36.34
34658;BME280;20865;43.312;27.152;2023-10-19T06:28:56;100583.02;;;18.32;35.92
34658;BME280;20865;43.312;27.152;2023-10-19T06:31:26;100572.96;;;18.50;35.90
34658;BME280;20865;43.312;27.152;2023-10-19T06:33:54;100574.88;;;18.71;35.59
34658;BME280;20865;43.312;27.152;2023-10-19T06:36:23;100565.31;;;18.95;35.59
34658;BME280;20865;43.312;27.152;2023-10-19T06:38:51;100563.06;;;19.18;35.73
34658;BME280;20865;43.312;27.152;2023-10-19T06:41:20;100571.20;;;19.39;35.78
34658;BME280;20865;43.312;27.152;2023-10-19T06:43:48;100571.28;;;19.59;35.51
34658;BME280;20865;43.312;27.152;2023-10-19T06:46:16;100569.30;;;19.77;35.12
34658;BME280;20865;43.312;27.152;2023-10-19T06:48:44;100561.99;;;19.99;35.25
34658;BME280;20865;43.312;27.152;2023-10-19T06:51:11;100564.16;;;20.21;35.17
34658;BME280;20865;43.312;27.152;2023-10-19T06:53:39;100564.77;;;20.39;34.88
34658;BME280;20865;43.312;27.152;2023-10-19T06:56:07;100562.23;;;20.57;34.60
34658;BME280;20865;43.312;27.152;2023-10-19T06:58:35;100562.16;;;20.72;34.68
34658;BME280;20865;43.312;27.152;2023-10-19T07:01:06;100558.02;;;20.86;34.68
34658;BME280;20865;43.312;27.152;2023-10-19T07:03:34;100558.30;;;21.01;34.97
34658;BME280;20865;43.312;27.152;2023-10-19T07:06:03;100546.64;;;21.06;34.43
34658;BME280;20865;43.312;27.152;2023-10-19T07:08:33;100550.06;;;21.28;34.48
34658;BME280;20865;43.312;27.152;2023-10-19T07:11:00;100556.99;;;21.39;34.61
34658;BME280;20865;43.312;27.152;2023-10-19T07:13:28;100544.00;;;21.50;34.55
34658;BME280;20865;43.312;27.152;2023-10-19T07:15:58;100543.38;;;21.65;34.60
34658;BME280;20865;43.312;27.152;2023-10-19T07:18:25;100541.95;;;21.72;34.35
34658;BME280;20865;43.312;27.152;2023-10-19T07:20:54;100542.64;;;21.81;34.29
34658;BME280;20865;43.312;27.152;2023-10-19T07:23:24;100545.56;;;21.91;34.11
34658;BME280;20865;43.312;27.152;2023-10-19T07:25:55;100537.75;;;22.05;34.05
34658;BME280;20865;43.312;27.152;2023-10-19T07:28:24;100538.89;;;22.26;34.33
34658;BME280;20865;43.312;27.152;2023-10-19T07:30:53;100536.22;;;22.38;33.75
34658;BME280;20865;43.312;27.152;2023-10-19T07:33:21;100528.59;;;22.43;33.69
34658;BME280;20865;43.312;27.152;2023-10-19T07:35:50;100524.19;;;22.58;33.47
34658;BME280;20865;43.312;27.152;2023-10-19T07:38:25;100519.17;;;22.76;33.93
34658;BME280;20865;43.312;27.152;2023-10-19T07:40:54;100520.12;;;22.94;32.87
34658;BME280;20865;43.312;27.152;2023-10-19T07:43:22;100522.40;;;23.05;33.56
34658;BME280;20865;43.312;27.152;2023-10-19T07:45:51;100513.12;;;23.25;33.16
34658;BME280;20865;43.312;27.152;2023-10-19T07:48:19;100521.95;;;23.40;33.17
34658;BME280;20865;43.312;27.152;2023-10-19T07:50:47;100514.03;;;23.53;32.85
34658;BME280;20865;43.312;27.152;2023-10-19T07:53:14;100507.85;;;23.68;33.03
34658;BME280;20865;43.312;27.152;2023-10-19T07:55:43;100500.15;;;23.79;33.35
34658;BME280;20865;43.312;27.152;2023-10-19T07:58:11;100493.91;;;23.94;33.40
34658;BME280;20865;43.312;27.152;2023-10-19T08:00:39;100498.22;;;24.13;32.97
34658;BME280;20865;43.312;27.152;2023-10-19T08:03:08;100492.97;;;24.21;32.42
34658;BME280;20865;43.312;27.152;2023-10-19T08:05:37;100493.68;;;24.35;32.62
34658;BME280;20865;43.312;27.152;2023-10-19T08:08:05;100483.95;;;24.47;32.68
34658;BME280;20865;43.312;27.152;2023-10-19T08:10:33;100484.63;;;24.66;31.77
34658;BME280;20865;43.312;27.152;2023-10-19T08:13:03;100485.05;;;24.83;32.72
34658;BME280;20865;43.312;27.152;2023-10-19T08:15:33;100483.95;;;24.95;30.96
34658;BME280;20865;43.312;27.152;2023-10-19T08:18:00;100481.37;;;24.93;30.78
34658;BME280;20865;43.312;27.152;2023-10-19T08:20:28;100486.19;;;24.75;30.98
34658;BME280;20865;43.312;27.152;2023-10-19T08:23:00;100486.11;;;25.12;31.00
34658;BME280;20865;43.312;27.152;2023-10-19T08:25:29;100484.98;;;25.30;30.46
34658;BME280;20865;43.312;27.152;2023-10-19T08:27:56;100482.06;;;25.37;31.05
34658;BME280;20865;43.312;27.152;2023-10-19T08:30:24;100475.55;;;25.59;30.90
34658;BME280;20865;43.312;27.152;2023-10-19T08:32:52;100484.14;;;25.85;30.57
34658;BME280;20865;43.312;27.152;2023-10-19T08:35:21;100488.42;;;26.03;30.48
34658;BME280;20865;43.312;27.152;2023-10-19T08:37:56;100470.50;;;26.14;29.71
34658;BME280;20865;43.312;27.152;2023-10-19T08:40:25;100475.13;;;26.24;29.18
34658;BME280;20865;43.312;27.152;2023-10-19T08:42:57;100476.93;;;26.38;29.50
34658;BME280;20865;43.312;27.152;2023-10-19T08:45:25;100461.30;;;26.35;28.88
34658;BME280;20865;43.312;27.152;2023-10-19T08:48:01;100462.16;;;26.45;28.84
34658;BME280;20865;43.312;27.152;2023-10-19T08:50:30;100466.23;;;26.60;28.98
34658;BME280;20865;43.312;27.152;2023-10-19T08:52:59;100467.52;;;26.66;29.29
34658;BME280;20865;43.312;27.152;2023-10-19T08:55:29;100463.63;;;26.69;28.17
34658;BME280;20865;43.312;27.152;2023-10-19T08:57:57;100462.70;;;26.64;27.73
34658;BME280;20865;43.312;27.152;2023-10-19T09:00:25;100461.23;;;26.70;28.10
34658;BME280;20865;43.312;27.152;2023-10-19T09:02:53;100457.56;;;26.75;28.19
34658;BME280;20865;43.312;27.152;2023-10-19T09:05:23;100465.03;;;26.92;28.77
34658;BME280;20865;43.312;27.152;2023-10-19T09:07:53;100457.09;;;26.99;27.77
34658;BME280;20865;43.312;27.152;2023-10-19T09:10:25;100445.05;;;27.19;28.59
34658;BME280;20865;43.312;27.152;2023-10-19T09:13:06;100445.05;;;27.19;28.59
34658;BME280;20865;43.312;27.152;2023-10-19T09:15:39;100426.51;;;27.27;28.59
34658;BME280;20865;43.312;27.152;2023-10-19T09:18:14;100426.51;;;27.27;28.59
34658;BME280;20865;43.312;27.152;2023-10-19T09:20:44;100417.73;;;27.37;28.72
34658;BME280;20865;43.312;27.152;2023-10-19T09:23:26;100416.80;;;27.46;28.43
34658;BME280;20865;43.312;27.152;2023-10-19T09:25:57;100406.64;;;27.57;27.69
34658;BME280;20865;43.312;27.152;2023-10-19T09:28:26;100406.73;;;27.51;26.13
34658;BME280;20865;43.312;27.152;2023-10-19T09:30:54;100387.64;;;27.59;26.22
34658;BME280;20865;43.312;27.152;2023-10-19T09:33:23;100390.95;;;27.35;25.95
34658;BME280;20865;43.312;27.152;2023-10-19T09:35:51;100390.78;;;27.50;27.09
34658;BME280;20865;43.312;27.152;2023-10-19T09:38:23;100385.67;;;27.51;25.69
34658;BME280;20865;43.312;27.152;2023-10-19T09:40:53;100385.67;;;27.51;25.69
34658;BME280;20865;43.312;27.152;2023-10-19T09:43:35;100376.27;;;26.89;25.55
34658;BME280;20865;43.312;27.152;2023-10-19T09:46:07;100384.74;;;26.72;26.12
34658;BME280;20865;43.312;27.152;2023-10-19T09:48:42;100384.74;;;26.72;26.12
34658;BME280;20865;43.312;27.152;2023-10-19T09:51:08;100383.16;;;26.93;26.32
34658;BME280;20865;43.312;27.152;2023-10-19T09:53:38;100376.77;;;27.12;26.72
34658;BME280;20865;43.312;27.152;2023-10-19T09:56:08;100372.01;;;27.04;25.11
34658;BME280;20865;43.312;27.152;2023-10-19T09:58:46;100361.34;;;27.01;24.85
34658;BME280;20865;43.312;27.152;2023-10-19T10:01:15;100361.34;;;27.01;24.85
34658;BME280;20865;43.312;27.152;2023-10-19T10:06:27;100351.53;;;27.22;24.81
34658;BME280;20865;43.312;27.152;2023-10-19T10:08:48;100364.30;;;27.27;25.05
34658;BME280;20865;43.312;27.152;2023-10-19T10:11:23;100353.42;;;27.22;24.92
34658;BME280;20865;43.312;27.152;2023-10-19T10:13:54;100357.62;;;27.44;26.04
34658;BME280;20865;43.312;27.152;2023-10-19T10:16:24;100350.36;;;27.52;25.40
34658;BME280;20865;43.312;27.152;2023-10-19T10:18:58;100349.20;;;27.55;25.10
34658;BME280;20865;43.312;27.152;2023-10-19T10:21:27;100339.94;;;27.56;25.50
34658;BME280;20865;43.312;27.152;2023-10-19T10:24:00;100327.80;;;27.59;25.88
34658;BME280;20865;43.312;27.152;2023-10-19T10:26:30;100326.54;;;27.71;26.29
34658;BME280;20865;43.312;27.152;2023-10-19T10:29:14;100320.20;;;27.84;26.52
34658;BME280;20865;43.312;27.152;2023-10-19T10:31:50;100317.06;;;27.97;26.60
34658;BME280;20865;43.312;27.152;2023-10-19T10:37:13;100310.86;;;28.17;25.47
34658;BME280;20865;43.312;27.152;2023-10-19T10:39:41;100308.20;;;28.25;25.85
34658;BME280;20865;43.312;27.152;2023-10-19T10:42:11;100292.38;;;28.23;24.08
34658;BME280;20865;43.312;27.152;2023-10-19T10:44:47;100303.07;;;28.30;24.41
34658;BME280;20865;43.312;27.152;2023-10-19T10:47:18;100295.80;;;28.39;25.44
34658;BME280;20865;43.312;27.152;2023-10-19T10:49:56;100289.48;;;28.46;25.38
34658;BME280;20865;43.312;27.152;2023-10-19T10:52:35;100283.99;;;28.46;25.26
34658;BME280;20865;43.312;27.152;2023-10-19T10:55:11;100282.62;;;28.46;25.46
34658;BME280;20865;43.312;27.152;2023-10-19T10:57:41;100276.29;;;28.50;25.29
34658;BME280;20865;43.312;27.152;2023-10-19T11:00:11;100269.70;;;28.39;24.41
34658;BME280;20865;43.312;27.152;2023-10-19T11:02:43;100272.62;;;28.41;24.42
34658;BME280;20865;43.312;27.152;2023-10-19T11:05:13;100272.37;;;28.53;25.26
34658;BME280;20865;43.312;27.152;2023-10-19T11:08:27;100264.91;;;28.45;24.60
34658;BME280;20865;43.312;27.152;2023-10-19T11:10:13;100271.67;;;28.55;24.50
34658;BME280;20865;43.312;27.152;2023-10-19T11:12:40;100262.25;;;28.57;24.64
34658;BME280;20865;43.312;27.152;2023-10-19T11:15:08;100264.46;;;28.54;24.51
34658;BME280;20865;43.312;27.152;2023-10-19T11:17:43;100265.34;;;28.58;24.30
34658;BME280;20865;43.312;27.152;2023-10-19T11:20:25;100268.09;;;28.58;24.42
34658;BME280;20865;43.312;27.152;2023-10-19T11:22:51;100262.75;;;28.53;24.29
34658;BME280;20865;43.312;27.152;2023-10-19T11:25:23;100258.94;;;28.45;23.78
34658;BME280;20865;43.312;27.152;2023-10-19T11:27:54;100259.79;;;28.46;24.28
34658;BME280;20865;43.312;27.152;2023-10-19T11:30:31;100250.64;;;28.41;24.17
34658;BME280;20865;43.312;27.152;2023-10-19T11:33:00;100249.31;;;28.45;24.71
34658;BME280;20865;43.312;27.152;2023-10-19T11:35:30;100240.12;;;28.37;24.04
34658;BME280;20865;43.312;27.152;2023-10-19T11:38:00;100232.96;;;28.40;24.87
34658;BME280;20865;43.312;27.152;2023-10-19T11:40:31;100232.64;;;28.43;24.67
34658;BME280;20865;43.312;27.152;2023-10-19T11:42:59;100225.92;;;28.41;24.56
34658;BME280;20865;43.312;27.152;2023-10-19T11:45:27;100235.91;;;28.42;24.50
34658;BME280;20865;43.312;27.152;2023-10-19T11:47:55;100221.64;;;28.39;24.38
34658;BME280;20865;43.312;27.152;2023-10-19T11:50:23;100221.75;;;28.37;24.10
34658;BME280;20865;43.312;27.152;2023-10-19T11:52:51;100211.17;;;28.38;24.74
34658;BME280;20865;43.312;27.152;2023-10-19T11:55:19;100209.62;;;28.40;24.60
34658;BME280;20865;43.312;27.152;2023-10-19T11:57:47;100217.73;;;28.28;24.04
34658;BME280;20865;43.312;27.152;2023-10-19T12:00:15;100219.16;;;28.32;25.08
34658;BME280;20865;43.312;27.152;2023-10-19T12:02:50;100224.67;;;28.36;25.03
34658;BME280;20865;43.312;27.152;2023-10-19T12:05:18;100216.06;;;28.35;24.83
34658;BME280;20865;43.312;27.152;2023-10-19T12:07:46;100212.30;;;28.32;25.50
34658;BME280;20865;43.312;27.152;2023-10-19T12:10:13;100225.02;;;28.37;25.37
34658;BME280;20865;43.312;27.152;2023-10-19T12:12:41;100214.87;;;28.33;25.09
34658;BME280;20865;43.312;27.152;2023-10-19T12:15:09;100205.56;;;28.26;24.74
34658;BME280;20865;43.312;27.152;2023-10-19T12:17:39;100213.27;;;28.22;25.37
34658;BME280;20865;43.312;27.152;2023-10-19T12:20:07;100211.77;;;28.28;25.36
34658;BME280;20865;43.312;27.152;2023-10-19T12:22:35;100213.97;;;28.24;25.69
34658;BME280;20865;43.312;27.152;2023-10-19T12:25:05;100211.53;;;28.17;25.39
34658;BME280;20865;43.312;27.152;2023-10-19T12:27:33;100203.61;;;28.14;25.47
34658;BME280;20865;43.312;27.152;2023-10-19T12:30:00;100204.78;;;28.12;25.60
34658;BME280;20865;43.312;27.152;2023-10-19T12:32:31;100200.98;;;28.09;25.72
34658;BME280;20865;43.312;27.152;2023-10-19T12:34:59;100189.25;;;27.98;25.34
34658;BME280;20865;43.312;27.152;2023-10-19T12:37:26;100193.37;;;27.98;25.46
34658;BME280;20865;43.312;27.152;2023-10-19T12:39:54;100183.95;;;28.01;25.57
34658;BME280;20865;43.312;27.152;2023-10-19T12:42:22;100175.84;;;27.95;25.77
34658;BME280;20865;43.312;27.152;2023-10-19T12:44:49;100183.88;;;27.93;25.49
34658;BME280;20865;43.312;27.152;2023-10-19T12:47:17;100177.02;;;27.93;25.83
34658;BME280;20865;43.312;27.152;2023-10-19T12:49:46;100176.99;;;27.89;26.16
34658;BME280;20865;43.312;27.152;2023-10-19T12:52:14;100167.08;;;27.92;26.25
34658;BME280;20865;43.312;27.152;2023-10-19T12:54:42;100159.77;;;27.78;25.83
34658;BME280;20865;43.312;27.152;2023-10-19T12:57:10;100161.14;;;27.78;26.05
34658;BME280;20865;43.312;27.152;2023-10-19T12:59:39;100157.83;;;27.75;26.32